Time;durP1;ratioP1;P1;durP2;ratioP2;P2;SDS_P1;SDS_P2;PMS_P1;PMS_P2;Temp;Humidity;BMP_temperature;BMP_pressure;BME280_temperature;BME280_humidity;BME280_pressure;Samples;Min_cycle;Max_cycle;Signal;HPM_P1;HPM_P2
2024/03/13 00:00:13;;;;;;;42.03;16.77;;;9.00;99.90;;;;;;5034858;28;20734;-63
2024/03/13 00:02:45;;;;;;;42.37;16.60;;;9.10;99.90;;;;;;4955419;28;20244;-65
2024/03/13 00:05:12;;;;;;;40.40;15.77;;;9.00;99.90;;;;;;4973209;28;20196;-64
2024/03/13 00:07:40;;;;;;;40.20;15.13;;;9.10;99.90;;;;;;4958013;28;20213;-63
2024/03/13 00:10:09;;;;;;;79.97;26.87;;;9.10;99.90;;;;;;5004424;28;20621;-64
2024/03/13 00:12:36;;;;;;;82.33;29.07;;;9.10;99.90;;;;;;5036013;28;20240;-64
2024/03/13 00:15:04;;;;;;;94.37;32.77;;;9.10;99.90;;;;;;4997980;28;20220;-64
2024/03/13 00:17:33;;;;;;;76.23;27.87;;;9.20;99.90;;;;;;4967198;28;20206;-64
2024/03/13 00:20:00;;;;;;;69.63;25.73;;;9.20;99.90;;;;;;4987792;28;20227;-64
2024/03/13 00:22:29;;;;;;;61.30;23.07;;;9.20;99.90;;;;;;5034184;28;20232;-65
2024/03/13 00:24:58;;;;;;;79.50;28.50;;;9.20;99.90;;;;;;4979403;28;20663;-65
2024/03/13 00:27:25;;;;;;;75.43;28.07;;;9.20;99.90;;;;;;4961064;28;20230;-65
2024/03/13 00:29:52;;;;;;;67.27;23.47;;;9.20;99.90;;;;;;4969769;28;20313;-65
2024/03/13 00:32:23;;;;;;;48.27;19.77;;;9.30;99.90;;;;;;4959965;28;20198;-64
2024/03/13 00:34:52;;;;;;;49.10;18.50;;;9.20;99.90;;;;;;4965071;28;20288;-65
2024/03/13 00:37:20;;;;;;;36.43;15.17;;;9.30;99.90;;;;;;4964893;28;20562;-64
2024/03/13 00:39:47;;;;;;;29.97;11.97;;;9.30;99.90;;;;;;4959576;28;20263;-65
2024/03/13 00:42:14;;;;;;;29.27;12.10;;;9.20;99.90;;;;;;4994123;28;20228;-65
2024/03/13 00:44:42;;;;;;;49.33;17.27;;;9.20;99.90;;;;;;4963451;28;20278;-64
2024/03/13 00:47:11;;;;;;;76.87;27.17;;;9.20;99.90;;;;;;4962236;28;20212;-65
2024/03/13 00:49:38;;;;;;;64.83;23.57;;;9.30;99.90;;;;;;4979609;28;20200;-65
2024/03/13 00:52:07;;;;;;;48.60;18.80;;;9.30;99.90;;;;;;4985525;28;20208;-65
2024/03/13 00:54:35;;;;;;;40.50;16.33;;;9.30;99.90;;;;;;5039941;28;20245;-64
2024/03/13 00:57:02;;;;;;;37.50;16.20;;;9.30;99.90;;;;;;4980329;28;21435;-63
2024/03/13 00:59:29;;;;;;;36.80;14.27;;;9.30;99.90;;;;;;5029289;28;20298;-64
2024/03/13 01:01:57;;;;;;;29.40;11.77;;;9.30;99.90;;;;;;5027158;28;20311;-64
2024/03/13 01:04:25;;;;;;;25.50;11.10;;;9.30;99.90;;;;;;4953721;28;20308;-65
2024/03/13 01:06:52;;;;;;;29.10;11.73;;;9.30;99.90;;;;;;5017880;28;20231;-64
2024/03/13 01:09:23;;;;;;;27.20;12.00;;;9.30;99.90;;;;;;4967839;28;20716;-65
2024/03/13 01:11:50;;;;;;;35.23;13.63;;;9.40;99.90;;;;;;5011473;28;20478;-64
2024/03/13 01:14:19;;;;;;;29.50;12.33;;;9.40;99.90;;;;;;4967921;28;20998;-64
2024/03/13 01:16:49;;;;;;;26.43;11.20;;;9.40;99.90;;;;;;5004284;28;20659;-65
2024/03/13 01:19:16;;;;;;;30.57;12.00;;;9.40;99.90;;;;;;4968515;28;20215;-64
2024/03/13 01:21:43;;;;;;;35.93;14.30;;;9.40;99.90;;;;;;4997302;28;20234;-64
2024/03/13 01:24:11;;;;;;;24.17;10.93;;;9.40;99.90;;;;;;4965788;28;20200;-64
2024/03/13 01:26:39;;;;;;;27.10;12.10;;;9.40;99.90;;;;;;4976262;28;20284;-64
2024/03/13 01:29:07;;;;;;;26.43;12.70;;;9.50;99.90;;;;;;4965023;28;20199;-64
2024/03/13 01:31:35;;;;;;;24.70;11.00;;;9.50;99.90;;;;;;4978850;28;20195;-63
2024/03/13 01:34:03;;;;;;;25.43;11.10;;;9.50;99.90;;;;;;4965724;28;20543;-63
2024/03/13 01:39:17;;;;;;;21.57;10.60;;;9.50;99.90;;;;;;5051771;28;20199;-64
2024/03/13 01:55:35;;;;;;;21.43;10.73;;;9.50;99.90;;;;;;4969248;28;20206;-63
2024/03/13 01:58:09;;;;;;;25.57;10.80;;;9.50;99.90;;;;;;4964050;28;20196;-64
2024/03/13 02:03:26;;;;;;;20.47;9.93;;;9.50;99.90;;;;;;5036336;28;20684;-64
2024/03/13 02:05:53;;;;;;;21.43;10.23;;;9.50;99.90;;;;;;4972720;28;20618;-64
2024/03/13 02:08:21;;;;;;;19.33;9.07;;;9.50;99.90;;;;;;4969966;28;20556;-64
2024/03/13 02:10:48;;;;;;;20.97;9.73;;;9.50;99.90;;;;;;4987299;28;20720;-64
2024/03/13 02:13:18;;;;;;;18.33;7.77;;;9.50;99.90;;;;;;5037826;28;20212;-64
2024/03/13 02:15:46;;;;;;;27.13;11.90;;;9.40;99.90;;;;;;4982592;28;20672;-64
2024/03/13 02:18:19;;;;;;;27.70;12.37;;;9.40;99.90;;;;;;5005900;28;20973;-64
2024/03/13 02:20:47;;;;;;;39.10;16.10;;;9.50;99.90;;;;;;4970308;28;20192;-64
2024/03/13 02:23:21;;;;;;;41.00;17.23;;;9.50;99.90;;;;;;4963987;28;20201;-64
2024/03/13 02:25:48;;;;;;;32.60;15.13;;;9.50;99.90;;;;;;5043546;28;20306;-64
2024/03/13 02:28:15;;;;;;;30.53;14.30;;;9.50;99.90;;;;;;5033124;28;20659;-64
2024/03/13 02:30:43;;;;;;;22.27;11.50;;;9.50;99.90;;;;;;5033191;28;20676;-64
2024/03/13 02:33:11;;;;;;;25.10;11.80;;;9.50;99.90;;;;;;5034979;28;20198;-64
2024/03/13 02:35:40;;;;;;;22.57;11.53;;;9.50;99.90;;;;;;5036192;28;20299;-64
2024/03/13 02:38:08;;;;;;;24.97;11.27;;;9.50;99.90;;;;;;5036156;28;20756;-64
2024/03/13 02:40:36;;;;;;;26.03;11.33;;;9.50;99.90;;;;;;5036378;28;20194;-64
2024/03/13 02:43:04;;;;;;;28.93;11.53;;;9.50;99.90;;;;;;5036128;28;20214;-64
2024/03/13 02:45:32;;;;;;;20.87;10.93;;;9.50;99.90;;;;;;5036456;28;20223;-64
2024/03/13 02:47:59;;;;;;;18.33;9.60;;;9.50;99.90;;;;;;5034664;28;20216;-64
2024/03/13 02:50:26;;;;;;;16.70;8.90;;;9.50;99.90;;;;;;5034886;28;20707;-63
2024/03/13 02:52:54;;;;;;;19.40;8.90;;;9.50;99.90;;;;;;5036128;28;20203;-64
2024/03/13 02:55:21;;;;;;;20.93;9.37;;;9.50;99.90;;;;;;5035885;28;20487;-64
2024/03/13 02:57:49;;;;;;;20.53;9.80;;;9.50;99.90;;;;;;5036534;28;20225;-64
2024/03/13 03:00:17;;;;;;;26.13;12.17;;;9.50;99.90;;;;;;5036406;28;20606;-64
2024/03/13 03:02:44;;;;;;;20.43;9.67;;;9.50;99.90;;;;;;5034685;28;20315;-64
2024/03/13 03:05:12;;;;;;;20.80;10.40;;;9.50;99.90;;;;;;5035168;28;20281;-64
2024/03/13 03:07:39;;;;;;;22.57;10.50;;;9.60;99.90;;;;;;5019034;28;20227;-64
2024/03/13 03:10:06;;;;;;;19.33;9.20;;;9.60;99.90;;;;;;5033268;28;20280;-65
2024/03/13 03:12:33;;;;;;;19.37;9.27;;;9.60;99.90;;;;;;5034635;28;20231;-64
2024/03/13 03:15:01;;;;;;;21.57;9.83;;;9.50;99.90;;;;;;5031875;28;20232;-64
2024/03/13 03:17:28;;;;;;;20.17;9.77;;;9.50;99.90;;;;;;5033487;28;20737;-64
2024/03/13 03:19:56;;;;;;;18.70;8.40;;;9.50;99.90;;;;;;5014449;28;20249;-64
2024/03/13 03:22:23;;;;;;;19.37;9.47;;;9.50;99.90;;;;;;5036910;28;20199;-64
2024/03/13 03:24:50;;;;;;;20.87;9.00;;;9.50;99.90;;;;;;5036119;28;20663;-64
2024/03/13 03:27:16;;;;;;;20.30;9.73;;;9.50;99.90;;;;;;5026073;28;20202;-64
2024/03/13 03:29:43;;;;;;;17.50;8.77;;;9.50;99.90;;;;;;5031367;28;20201;-64
2024/03/13 03:32:10;;;;;;;15.93;8.97;;;9.50;99.90;;;;;;5035685;28;20325;-64
2024/03/13 03:34:39;;;;;;;17.53;8.53;;;9.50;99.90;;;;;;5030070;28;20286;-65
2024/03/13 03:37:07;;;;;;;19.07;8.80;;;9.50;99.90;;;;;;5053706;28;20199;-65
2024/03/13 03:39:34;;;;;;;18.47;8.43;;;9.50;99.90;;;;;;5018895;28;20656;-63
2024/03/13 03:42:03;;;;;;;14.77;8.20;;;9.50;99.90;;;;;;5053505;28;20232;-63
2024/03/13 03:44:31;;;;;;;20.47;9.30;;;9.50;99.90;;;;;;5018353;28;20227;-64
2024/03/13 03:46:58;;;;;;;23.90;10.50;;;9.50;99.90;;;;;;5044952;28;20226;-64
2024/03/13 03:49:26;;;;;;;26.23;11.67;;;9.50;99.90;;;;;;5034512;28;20629;-64
2024/03/13 03:51:53;;;;;;;23.70;10.53;;;9.40;99.90;;;;;;5053199;28;20193;-63
2024/03/13 03:54:21;;;;;;;21.13;10.60;;;9.50;99.90;;;;;;5035330;28;20231;-64
2024/03/13 03:56:48;;;;;;;21.10;10.03;;;9.40;99.90;;;;;;5044868;28;20229;-63
2024/03/13 03:59:15;;;;;;;31.43;13.40;;;9.40;99.90;;;;;;5034944;28;20217;-65
2024/03/13 04:01:43;;;;;;;26.47;12.10;;;9.40;99.90;;;;;;5038559;28;20609;-63
2024/03/13 04:04:13;;;;;;;24.93;10.50;;;9.40;99.90;;;;;;5033249;28;20689;-64
2024/03/13 04:06:41;;;;;;;28.73;12.57;;;9.40;99.90;;;;;;5032037;28;20254;-64
2024/03/13 04:09:15;;;;;;;21.57;9.93;;;9.40;99.90;;;;;;5025837;28;20203;-63
2024/03/13 04:11:43;;;;;;;27.20;11.67;;;9.40;99.90;;;;;;5030210;28;20677;-64
2024/03/13 04:14:10;;;;;;;27.17;11.57;;;9.40;99.90;;;;;;5032267;28;20675;-64
2024/03/13 04:16:38;;;;;;;28.27;12.13;;;9.40;99.90;;;;;;5033570;28;20261;-63
2024/03/13 04:19:06;;;;;;;19.50;8.97;;;9.40;99.90;;;;;;5031200;28;20207;-64
2024/03/13 04:21:33;;;;;;;22.80;10.17;;;9.40;99.90;;;;;;5031953;28;20216;-64
2024/03/13 04:24:01;;;;;;;28.47;11.57;;;9.30;99.90;;;;;;5031587;28;20207;-63
2024/03/13 04:26:29;;;;;;;24.07;10.93;;;9.30;99.90;;;;;;5027838;28;20960;-64
2024/03/13 04:28:58;;;;;;;30.20;13.10;;;9.30;99.90;;;;;;5024211;28;20208;-63
2024/03/13 04:31:26;;;;;;;26.27;11.17;;;9.30;99.90;;;;;;5034107;28;20211;-64
2024/03/13 04:33:54;;;;;;;26.27;11.87;;;9.30;99.90;;;;;;5017322;28;20208;-64
2024/03/13 04:36:21;;;;;;;29.17;12.03;;;9.20;99.90;;;;;;5033420;28;20311;-65
2024/03/13 04:38:51;;;;;;;22.80;11.07;;;9.20;99.90;;;;;;5033499;28;20217;-64
2024/03/13 04:41:19;;;;;;;23.60;11.23;;;9.20;99.90;;;;;;5016465;28;20214;-64
2024/03/13 04:43:46;;;;;;;27.40;12.77;;;9.10;99.90;;;;;;5035219;28;20198;-64
2024/03/13 04:46:16;;;;;;;26.13;11.07;;;9.10;99.90;;;;;;5034024;28;20254;-65
2024/03/13 04:48:45;;;;;;;17.90;9.47;;;9.00;99.90;;;;;;5030459;28;20215;-65
2024/03/13 04:51:14;;;;;;;20.97;9.70;;;9.10;99.90;;;;;;5034445;28;20253;-65
2024/03/13 04:53:43;;;;;;;21.90;10.90;;;9.10;99.90;;;;;;5029562;28;20230;-64
2024/03/13 04:56:11;;;;;;;20.53;10.40;;;9.10;99.90;;;;;;5032917;28;20769;-63
2024/03/13 04:58:38;;;;;;;19.27;9.70;;;9.10;99.90;;;;;;5037661;28;20280;-64
2024/03/13 05:01:05;;;;;;;20.67;10.63;;;9.10;99.90;;;;;;5021741;28;20606;-64
2024/03/13 05:03:33;;;;;;;17.37;10.23;;;9.10;99.90;;;;;;5020099;28;20243;-65
2024/03/13 05:06:01;;;;;;;19.70;11.10;;;9.10;99.90;;;;;;5032980;28;20596;-63
2024/03/13 05:08:29;;;;;;;22.10;10.77;;;9.00;99.90;;;;;;5037460;28;20611;-63
2024/03/13 05:10:56;;;;;;;20.23;10.63;;;9.00;99.90;;;;;;5038450;28;20214;-64
2024/03/13 05:13:23;;;;;;;18.40;9.77;;;9.00;99.90;;;;;;5039053;28;20231;-64
2024/03/13 05:15:51;;;;;;;17.67;9.53;;;9.00;99.90;;;;;;5032525;28;20299;-63
2024/03/13 05:18:19;;;;;;;18.90;9.73;;;8.90;99.90;;;;;;5040864;28;20286;-63
2024/03/13 05:20:46;;;;;;;22.17;11.60;;;8.90;99.90;;;;;;5037716;28;20290;-63
2024/03/13 05:23:13;;;;;;;19.70;10.47;;;8.90;99.90;;;;;;5047068;28;20234;-63
2024/03/13 05:25:40;;;;;;;19.97;9.67;;;8.90;99.90;;;;;;5038211;28;20616;-64
2024/03/13 05:28:07;;;;;;;16.37;8.93;;;8.80;99.90;;;;;;5048360;28;20195;-64
2024/03/13 05:30:36;;;;;;;19.00;9.63;;;8.80;99.90;;;;;;5029041;28;20232;-63
2024/03/13 05:33:06;;;;;;;16.30;9.03;;;8.80;99.90;;;;;;5053428;28;20329;-63
2024/03/13 05:35:33;;;;;;;27.03;12.93;;;8.80;99.90;;;;;;5019510;28;20222;-63
2024/03/13 05:38:00;;;;;;;20.77;11.23;;;8.80;99.90;;;;;;5050982;28;20279;-63
2024/03/13 05:40:27;;;;;;;22.10;11.13;;;8.80;99.90;;;;;;5050238;28;20226;-63
2024/03/13 05:42:54;;;;;;;20.57;11.33;;;8.80;99.90;;;;;;5044779;28;20206;-64
2024/03/13 05:45:21;;;;;;;18.87;10.13;;;8.80;99.90;;;;;;5035528;28;20696;-64
2024/03/13 05:47:48;;;;;;;16.67;9.43;;;8.80;99.90;;;;;;5037108;28;20228;-64
2024/03/13 05:50:17;;;;;;;17.90;9.40;;;8.80;99.90;;;;;;5019890;28;20198;-64
2024/03/13 05:52:45;;;;;;;16.57;9.50;;;8.80;99.90;;;;;;5036775;28;20619;-64
2024/03/13 05:55:13;;;;;;;14.80;8.43;;;8.80;99.90;;;;;;5035055;28;20288;-64
2024/03/13 05:57:40;;;;;;;14.03;7.10;;;8.90;99.90;;;;;;5036894;28;20301;-63
2024/03/13 06:00:09;;;;;;;15.80;9.33;;;8.90;99.90;;;;;;5036344;28;20279;-64
2024/03/13 06:02:40;;;;;;;17.97;9.93;;;8.90;99.90;;;;;;5049660;28;20247;-64
2024/03/13 06:05:11;;;;;;;19.53;9.97;;;8.90;99.90;;;;;;5049797;28;20197;-64
2024/03/13 06:07:38;;;;;;;19.43;9.73;;;8.90;99.90;;;;;;5051546;28;20192;-64
2024/03/13 06:10:06;;;;;;;17.90;9.07;;;8.90;99.90;;;;;;5050637;28;20194;-63
2024/03/13 06:12:34;;;;;;;16.07;9.10;;;8.90;99.90;;;;;;5051256;28;20202;-64
2024/03/13 06:15:06;;;;;;;16.27;8.40;;;8.90;99.90;;;;;;5048743;28;20562;-63
2024/03/13 06:17:34;;;;;;;18.17;9.33;;;8.90;99.90;;;;;;5045289;28;20287;-62
2024/03/13 06:20:01;;;;;;;17.53;9.37;;;8.90;99.90;;;;;;5046367;28;20717;-64
2024/03/13 06:22:29;;;;;;;31.20;14.40;;;8.90;99.90;;;;;;5048785;28;20545;-64
2024/03/13 06:25:00;;;;;;;25.83;12.97;;;9.00;99.90;;;;;;5045362;28;20203;-64
2024/03/13 06:27:28;;;;;;;28.73;13.57;;;9.00;99.90;;;;;;5050224;28;20245;-64
2024/03/13 06:29:58;;;;;;;21.07;10.73;;;9.00;99.90;;;;;;5045000;28;20203;-63
2024/03/13 06:32:28;;;;;;;18.23;9.57;;;9.00;99.90;;;;;;5048482;28;20220;-63
2024/03/13 06:34:56;;;;;;;17.07;8.97;;;9.00;99.90;;;;;;5048984;28;20203;-64
2024/03/13 06:37:24;;;;;;;16.97;8.57;;;8.90;99.90;;;;;;5049817;28;20227;-64
2024/03/13 06:39:51;;;;;;;13.67;7.63;;;8.90;99.90;;;;;;5049129;28;20589;-63
2024/03/13 06:42:18;;;;;;;30.50;13.90;;;8.90;99.90;;;;;;5047478;28;20207;-64
2024/03/13 06:44:45;;;;;;;31.83;13.47;;;8.90;99.90;;;;;;5050276;28;20196;-64
2024/03/13 06:47:12;;;;;;;24.13;10.80;;;8.90;99.90;;;;;;5048358;28;20220;-64
2024/03/13 06:49:40;;;;;;;19.60;9.63;;;8.90;99.90;;;;;;5049487;28;20199;-64
2024/03/13 06:52:07;;;;;;;16.80;8.20;;;8.90;99.90;;;;;;5049047;28;20203;-64
2024/03/13 06:54:36;;;;;;;14.83;7.43;;;8.90;99.90;;;;;;5047179;28;20189;-64
2024/03/13 06:57:03;;;;;;;12.10;6.27;;;8.90;99.90;;;;;;5048901;28;20217;-64
2024/03/13 06:59:30;;;;;;;16.30;7.73;;;8.90;99.90;;;;;;5040874;28;20284;-64
2024/03/13 07:02:00;;;;;;;15.50;6.80;;;8.90;99.90;;;;;;5029263;28;20651;-64
2024/03/13 07:04:27;;;;;;;14.07;7.30;;;8.90;99.90;;;;;;5026607;28;20232;-64
2024/03/13 07:06:57;;;;;;;10.70;5.70;;;8.90;99.90;;;;;;5047226;28;20213;-64
2024/03/13 07:09:26;;;;;;;13.93;7.13;;;8.90;99.90;;;;;;5043023;28;20283;-63
2024/03/13 07:11:53;;;;;;;11.93;6.20;;;8.90;99.90;;;;;;5044556;28;20247;-64
2024/03/13 07:14:20;;;;;;;12.90;6.77;;;8.90;99.90;;;;;;5043717;28;20741;-65
2024/03/13 07:16:47;;;;;;;11.17;5.20;;;8.90;99.90;;;;;;5046596;28;20209;-65
2024/03/13 07:19:14;;;;;;;11.93;6.20;;;8.90;99.90;;;;;;5025391;28;20691;-65
2024/03/13 07:21:41;;;;;;;8.63;5.30;;;8.90;99.90;;;;;;5030788;28;20197;-65
2024/03/13 07:24:08;;;;;;;10.17;5.37;;;8.90;99.90;;;;;;5025527;28;20641;-64
2024/03/13 07:26:35;;;;;;;8.43;4.93;;;8.90;99.90;;;;;;5030187;28;20211;-63
2024/03/13 07:29:04;;;;;;;7.33;4.87;;;8.90;99.90;;;;;;5021677;28;20224;-63
2024/03/13 07:31:31;;;;;;;8.50;5.20;;;8.90;99.90;;;;;;5027571;28;20214;-65
2024/03/13 07:33:58;;;;;;;9.13;5.00;;;8.90;99.90;;;;;;5028091;28;20609;-64
2024/03/13 07:36:25;;;;;;;7.43;4.47;;;8.90;99.90;;;;;;5047374;28;20243;-64
2024/03/13 07:38:53;;;;;;;11.53;5.80;;;8.90;99.90;;;;;;5029102;28;20195;-64
2024/03/13 07:41:20;;;;;;;7.60;5.03;;;8.90;99.90;;;;;;5047076;28;20220;-64
2024/03/13 07:43:49;;;;;;;9.50;5.43;;;8.90;99.90;;;;;;5014986;28;20276;-65
2024/03/13 07:46:16;;;;;;;7.53;4.80;;;8.90;99.90;;;;;;5046893;28;20198;-64
2024/03/13 07:48:43;;;;;;;8.73;5.37;;;8.90;99.90;;;;;;5045554;28;20192;-64
2024/03/13 07:51:11;;;;;;;7.60;4.70;;;8.90;99.90;;;;;;5047943;28;20721;-64
2024/03/13 07:53:38;;;;;;;9.17;5.23;;;8.90;99.90;;;;;;5015367;28;20202;-64
2024/03/13 07:56:06;;;;;;;7.63;4.83;;;8.90;99.90;;;;;;5029848;28;20211;-64
2024/03/13 07:58:33;;;;;;;10.97;5.77;;;8.90;99.90;;;;;;5047549;28;20575;-64
2024/03/13 08:01:05;;;;;;;8.67;5.60;;;8.90;99.90;;;;;;5046045;28;20195;-64
2024/03/13 08:03:33;;;;;;;8.40;4.93;;;8.90;99.90;;;;;;5045540;28;20240;-64
2024/03/13 08:06:00;;;;;;;9.97;5.13;;;8.90;99.90;;;;;;5030376;28;20685;-64
2024/03/13 08:08:27;;;;;;;7.10;4.37;;;8.90;99.90;;;;;;5040013;28;20200;-64
2024/03/13 08:10:54;;;;;;;7.67;4.83;;;8.90;99.90;;;;;;5046390;28;20278;-64
2024/03/13 08:13:21;;;;;;;5.93;3.73;;;8.90;99.90;;;;;;5047170;28;20195;-65
2024/03/13 08:15:48;;;;;;;10.37;5.10;;;9.00;99.90;;;;;;5033012;28;20289;-65
2024/03/13 08:18:19;;;;;;;6.73;4.33;;;9.00;99.90;;;;;;5027271;28;20265;-64
2024/03/13 08:20:48;;;;;;;8.40;4.73;;;9.00;99.90;;;;;;5035844;28;20221;-65
2024/03/13 08:23:16;;;;;;;16.63;7.93;;;9.10;99.90;;;;;;5047293;28;20526;-65
2024/03/13 08:25:44;;;;;;;18.00;9.10;;;9.10;99.90;;;;;;5044644;28;20208;-65
2024/03/13 08:28:11;;;;;;;14.57;8.10;;;9.10;99.90;;;;;;5044218;28;20204;-64
2024/03/13 08:30:39;;;;;;;11.57;6.40;;;9.20;99.90;;;;;;5030202;28;20194;-64
2024/03/13 08:33:07;;;;;;;24.70;9.70;;;9.20;99.90;;;;;;5051606;28;20648;-64
2024/03/13 08:35:34;;;;;;;15.53;8.13;;;9.20;99.90;;;;;;5025024;28;20197;-64
2024/03/13 08:38:01;;;;;;;11.07;6.33;;;9.30;99.90;;;;;;5027415;28;20216;-64
2024/03/13 08:40:29;;;;;;;11.93;6.10;;;9.20;99.90;;;;;;5029306;28;20197;-63
2024/03/13 08:42:58;;;;;;;22.27;10.07;;;9.10;99.90;;;;;;5043211;28;20235;-64
2024/03/13 08:45:25;;;;;;;24.40;11.77;;;9.20;99.90;;;;;;5050836;28;20717;-64
2024/03/13 08:47:53;;;;;;;22.00;10.03;;;9.20;99.90;;;;;;5044766;28;20199;-64
2024/03/13 08:50:20;;;;;;;22.83;10.70;;;9.20;99.90;;;;;;5030650;28;20206;-64
2024/03/13 08:52:48;;;;;;;18.33;9.17;;;9.30;99.90;;;;;;5044813;28;20371;-63
2024/03/13 08:55:17;;;;;;;17.63;8.47;;;9.30;99.90;;;;;;5045131;28;20228;-65
2024/03/13 08:57:44;;;;;;;10.20;5.97;;;9.30;99.90;;;;;;5044465;28;20296;-65
2024/03/13 09:00:12;;;;;;;27.53;12.20;;;9.30;99.90;;;;;;5031393;28;20637;-65
2024/03/13 09:02:39;;;;;;;25.50;11.57;;;9.30;99.90;;;;;;5028866;28;20229;-64
2024/03/13 09:05:07;;;;;;;26.80;13.43;;;9.30;99.90;;;;;;5044794;28;20307;-65
2024/03/13 09:07:34;;;;;;;27.57;12.00;;;9.30;99.90;;;;;;5047177;28;20550;-64
2024/03/13 09:10:02;;;;;;;26.37;11.60;;;9.30;99.90;;;;;;5043621;28;20260;-65
2024/03/13 09:12:29;;;;;;;21.67;10.07;;;9.30;99.90;;;;;;5045079;28;20198;-64
2024/03/13 09:14:56;;;;;;;15.10;8.37;;;9.30;99.90;;;;;;5040920;28;20325;-64
2024/03/13 09:17:24;;;;;;;16.47;8.73;;;9.40;99.90;;;;;;5043842;28;20900;-64
2024/03/13 09:19:51;;;;;;;14.47;7.67;;;9.40;99.90;;;;;;5044849;28;20686;-64
2024/03/13 09:22:18;;;;;;;17.53;7.37;;;9.40;99.90;;;;;;5029817;28;20207;-64
2024/03/13 09:24:46;;;;;;;15.37;7.93;;;9.40;99.90;;;;;;5044201;28;20272;-64
2024/03/13 09:27:13;;;;;;;11.77;6.00;;;9.40;99.90;;;;;;5029512;28;20220;-64
2024/03/13 09:29:40;;;;;;;11.63;6.20;;;9.40;99.90;;;;;;5045848;28;20250;-64
2024/03/13 09:32:07;;;;;;;10.90;5.63;;;9.40;99.90;;;;;;5043929;28;20203;-63
2024/03/13 09:34:35;;;;;;;13.57;6.70;;;9.40;99.90;;;;;;5043600;28;20282;-64
2024/03/13 09:37:04;;;;;;;11.63;6.23;;;9.30;99.90;;;;;;5045245;28;20283;-64
2024/03/13 09:39:31;;;;;;;14.57;6.47;;;9.30;99.90;;;;;;5046572;28;20235;-64
2024/03/13 09:41:58;;;;;;;11.97;6.90;;;9.30;99.90;;;;;;5048508;28;20634;-64
2024/03/13 09:44:25;;;;;;;13.00;6.83;;;9.30;99.90;;;;;;5048218;28;20278;-63
2024/03/13 09:46:53;;;;;;;18.50;8.47;;;9.30;99.90;;;;;;5046288;28;20190;-64
2024/03/13 09:49:20;;;;;;;20.00;9.33;;;9.30;99.90;;;;;;5048775;28;20200;-63
2024/03/13 09:51:47;;;;;;;16.13;7.47;;;9.30;99.90;;;;;;5031849;28;20279;-63
2024/03/13 09:54:14;;;;;;;19.27;8.50;;;9.40;99.90;;;;;;5046972;28;20311;-63
2024/03/13 09:56:42;;;;;;;17.80;8.07;;;9.40;99.90;;;;;;5031746;28;20202;-63
2024/03/13 09:59:09;;;;;;;12.17;6.17;;;9.40;99.90;;;;;;5048903;28;20236;-63
2024/03/13 10:01:37;;;;;;;11.70;5.73;;;9.40;99.90;;;;;;5048510;28;20311;-63
2024/03/13 10:04:10;;;;;;;11.03;5.87;;;9.40;99.90;;;;;;5047845;28;20275;-63
2024/03/13 10:06:38;;;;;;;9.70;5.17;;;9.40;99.90;;;;;;5049474;28;20278;-64
2024/03/13 10:09:12;;;;;;;10.00;5.50;;;9.40;99.90;;;;;;5045765;28;20209;-64
2024/03/13 10:11:42;;;;;;;9.77;6.13;;;9.30;99.90;;;;;;5014888;28;20291;-64
2024/03/13 10:14:09;;;;;;;13.67;6.10;;;9.30;99.90;;;;;;5029443;28;20280;-64
2024/03/13 10:16:37;;;;;;;37.03;13.67;;;9.30;99.90;;;;;;5046013;28;20763;-64
2024/03/13 10:19:04;;;;;;;46.03;17.07;;;9.30;99.90;;;;;;5044033;28;20904;-64
2024/03/13 10:21:32;;;;;;;49.13;17.57;;;9.30;99.90;;;;;;5030755;28;20288;-65
2024/03/13 10:23:59;;;;;;;38.87;15.03;;;9.30;99.90;;;;;;5044304;28;20205;-64
2024/03/13 10:26:26;;;;;;;33.27;13.80;;;9.30;99.90;;;;;;5047687;28;20206;-64
2024/03/13 10:28:54;;;;;;;40.27;15.30;;;9.30;99.90;;;;;;5015602;28;20201;-64
2024/03/13 10:31:21;;;;;;;25.93;11.90;;;9.30;99.90;;;;;;5015982;28;20229;-63
2024/03/13 10:33:49;;;;;;;26.37;12.07;;;9.30;99.90;;;;;;5027644;28;20294;-64
2024/03/13 10:36:16;;;;;;;29.93;11.87;;;9.30;99.90;;;;;;5031556;28;20207;-64
2024/03/13 10:38:44;;;;;;;21.90;9.30;;;9.30;99.90;;;;;;5047609;28;20298;-63
2024/03/13 10:41:12;;;;;;;18.87;8.37;;;9.30;99.90;;;;;;5032912;28;20200;-65
2024/03/13 10:43:39;;;;;;;13.87;6.93;;;9.30;99.90;;;;;;5048543;28;20200;-63
2024/03/13 10:46:08;;;;;;;14.77;6.70;;;9.30;99.90;;;;;;5031352;28;20200;-63
2024/03/13 10:48:35;;;;;;;27.40;11.17;;;9.30;99.90;;;;;;5047183;28;20288;-66
2024/03/13 10:51:03;;;;;;;19.67;9.03;;;9.30;99.90;;;;;;5031533;28;20206;-67
2024/03/13 10:53:33;;;;;;;14.23;7.77;;;9.40;99.90;;;;;;5047345;28;20197;-66
2024/03/13 10:56:00;;;;;;;12.97;6.43;;;9.40;99.90;;;;;;5046735;28;20227;-66
2024/03/13 10:58:27;;;;;;;41.97;17.77;;;9.40;99.90;;;;;;5044553;28;20295;-67
2024/03/13 11:00:55;;;;;;;35.90;14.73;;;9.40;99.90;;;;;;5028177;28;20204;-66
2024/03/13 11:03:22;;;;;;;29.37;13.73;;;9.40;99.90;;;;;;5044477;28;20305;-66
2024/03/13 11:05:50;;;;;;;21.10;11.03;;;9.30;99.90;;;;;;5044657;28;20728;-66
2024/03/13 11:08:17;;;;;;;23.60;11.63;;;9.30;99.90;;;;;;5026077;28;20263;-66
2024/03/13 11:10:46;;;;;;;25.87;12.07;;;9.30;99.90;;;;;;5048282;28;20216;-66
2024/03/13 11:13:13;;;;;;;31.67;13.90;;;9.20;99.90;;;;;;5047699;28;20645;-66
2024/03/13 11:15:40;;;;;;;27.27;12.33;;;9.20;99.90;;;;;;5029060;28;20687;-66
2024/03/13 11:18:09;;;;;;;23.63;10.40;;;9.20;99.90;;;;;;5025188;28;20213;-66
2024/03/13 11:20:37;;;;;;;45.30;16.90;;;9.20;99.90;;;;;;5047437;28;20208;-66
2024/03/13 11:23:05;;;;;;;37.03;14.27;;;9.20;99.90;;;;;;5047258;28;20198;-66
2024/03/13 11:25:32;;;;;;;26.20;11.57;;;9.20;99.90;;;;;;5049712;28;20295;-66
2024/03/13 11:27:59;;;;;;;16.53;8.90;;;9.20;99.90;;;;;;5031159;28;20291;-66
2024/03/13 11:30:28;;;;;;;19.53;9.40;;;9.20;99.90;;;;;;5030634;28;20666;-67
2024/03/13 11:32:56;;;;;;;19.40;9.17;;;9.20;99.90;;;;;;5028238;28;20231;-67
2024/03/13 11:35:23;;;;;;;37.60;15.47;;;9.20;99.90;;;;;;5026166;28;20841;-67
2024/03/13 11:37:50;;;;;;;39.77;16.63;;;9.30;99.90;;;;;;5046846;28;20235;-67
2024/03/13 11:40:17;;;;;;;39.87;16.30;;;9.30;99.90;;;;;;5034098;28;20203;-67
2024/03/13 11:42:44;;;;;;;35.23;15.23;;;9.30;99.90;;;;;;5048727;28;20709;-67
2024/03/13 11:45:15;;;;;;;35.57;15.80;;;9.30;99.90;;;;;;5043764;28;20210;-67
2024/03/13 11:47:45;;;;;;;32.00;13.67;;;9.20;99.90;;;;;;5044431;28;20186;-66
2024/03/13 11:50:13;;;;;;;49.67;19.47;;;9.20;99.90;;;;;;5025951;28;20528;-67
2024/03/13 11:53:06;;;;;;;45.23;17.07;;;9.20;99.90;;;;;;5031104;28;20281;-67
2024/03/13 11:55:33;;;;;;;42.77;17.33;;;9.20;99.90;;;;;;5038422;28;20208;-67
2024/03/13 11:58:06;;;;;;;34.37;14.90;;;9.20;99.90;;;;;;5031387;28;20215;-66
2024/03/13 12:00:33;;;;;;;34.93;14.37;;;9.20;99.90;;;;;;5040243;28;20240;-66
2024/03/13 12:03:02;;;;;;;46.43;17.93;;;9.20;99.90;;;;;;5022609;28;20307;-66
2024/03/13 12:05:33;;;;;;;41.30;16.77;;;9.20;99.90;;;;;;4944337;28;20203;-66
2024/03/13 12:08:02;;;;;;;25.77;11.80;;;9.20;99.90;;;;;;4943982;28;20563;-66
2024/03/13 12:10:30;;;;;;;24.57;11.13;;;9.10;99.90;;;;;;4970219;28;20200;-66
2024/03/13 12:12:57;;;;;;;31.07;13.27;;;9.10;99.90;;;;;;4940158;28;20206;-66
2024/03/13 12:15:24;;;;;;;32.17;13.60;;;9.10;99.90;;;;;;4978479;28;20282;-66
2024/03/13 12:17:55;;;;;;;41.33;16.77;;;9.10;99.90;;;;;;4936600;28;20649;-65
2024/03/13 12:20:24;;;;;;;42.97;17.67;;;9.20;99.90;;;;;;4942557;28;20304;-65
2024/03/13 12:22:51;;;;;;;41.47;18.17;;;9.20;99.90;;;;;;4949661;28;20261;-66
2024/03/13 12:25:19;;;;;;;40.93;17.27;;;9.20;99.90;;;;;;4943348;28;20228;-66
2024/03/13 12:27:47;;;;;;;41.03;15.00;;;9.20;99.90;;;;;;4938745;28;20851;-66
2024/03/13 12:30:15;;;;;;;35.93;15.37;;;9.10;99.90;;;;;;4955298;28;20217;-66
2024/03/13 12:32:43;;;;;;;38.77;16.13;;;9.10;99.90;;;;;;4931230;28;20207;-66
2024/03/13 12:35:11;;;;;;;31.60;14.53;;;9.20;99.90;;;;;;4973888;28;20199;-66
2024/03/13 12:37:38;;;;;;;43.87;17.70;;;9.10;99.90;;;;;;4958239;28;20242;-66
2024/03/13 12:40:08;;;;;;;42.97;16.13;;;9.20;99.90;;;;;;4942534;28;20260;-66
2024/03/13 12:42:38;;;;;;;27.07;12.57;;;9.20;99.90;;;;;;4941591;28;20348;-66
2024/03/13 12:45:07;;;;;;;27.77;12.90;;;9.20;99.90;;;;;;4940176;28;20222;-66
2024/03/13 12:47:35;;;;;;;21.67;10.40;;;9.20;99.90;;;;;;4974590;28;20214;-66
2024/03/13 12:50:06;;;;;;;18.30;8.83;;;9.20;99.90;;;;;;4934227;28;20596;-66
2024/03/13 12:52:35;;;;;;;24.47;11.30;;;9.20;99.90;;;;;;4952548;28;20209;-65
2024/03/13 12:55:03;;;;;;;28.97;12.83;;;9.20;99.90;;;;;;4909801;28;20609;-66
2024/03/13 12:57:33;;;;;;;17.73;9.47;;;9.30;99.90;;;;;;4944739;28;20205;-67
2024/03/13 13:00:13;;;;;;;14.17;8.30;;;9.30;99.90;;;;;;4932541;28;20209;-67
2024/03/13 13:02:42;;;;;;;15.90;8.30;;;9.30;99.90;;;;;;4941614;28;20346;-67
2024/03/13 13:05:10;;;;;;;13.57;7.23;;;9.30;99.90;;;;;;4998656;28;20378;-66